createdAt,value
2019-05-06T00:01:04.734Z,4.27
2019-05-06T00:05:58.474Z,3.53
2019-05-06T00:10:54.096Z,4.43
2019-05-06T00:15:47.553Z,3.50
2019-05-06T00:20:41.173Z,3.57
2019-05-06T00:25:48.901Z,3.60
2019-05-06T00:30:44.765Z,3.80
2019-05-06T00:35:38.372Z,3.37
2019-05-06T00:40:35.668Z,4.10
2019-05-06T00:45:29.640Z,3.90
2019-05-06T00:50:24.023Z,3.70
2019-05-06T00:55:18.014Z,3.57
2019-05-06T01:00:19.358Z,3.37
2019-05-06T01:05:15.451Z,4.80
2019-05-06T01:10:09.411Z,3.50
2019-05-06T01:15:05.128Z,3.83
2019-05-06T01:19:58.762Z,3.50
2019-05-06T01:24:52.353Z,4.40
2019-05-06T01:29:46.207Z,3.70
2019-05-06T01:34:39.921Z,4.30
2019-05-06T01:39:53.722Z,4.27
2019-05-06T01:44:47.625Z,4.63
2019-05-06T01:49:41.447Z,3.73
2019-05-06T01:54:35.124Z,4.00
2019-05-06T01:59:31.281Z,4.70
2019-05-06T02:04:25.080Z,4.60
2019-05-06T02:09:19.230Z,4.23
2019-05-06T02:14:14.037Z,4.83
2019-05-06T02:19:08.223Z,5.03
2019-05-06T02:24:04.362Z,4.63
2019-05-06T02:29:00.501Z,4.37
2019-05-06T02:33:58.760Z,5.17
2019-05-06T02:38:55.826Z,4.67
2019-05-06T02:43:48.317Z,4.70
2019-05-06T02:49:09.398Z,5.10
2019-05-06T02:54:03.574Z,4.83
2019-05-06T02:58:57.460Z,5.50
2019-05-06T03:03:53.660Z,5.60
2019-05-06T03:08:47.178Z,5.77
2019-05-06T03:13:43.668Z,5.53
2019-05-06T03:18:37.785Z,6.10
2019-05-06T03:23:34.875Z,5.60
2019-05-06T03:28:29.130Z,5.57
2019-05-06T03:33:46.879Z,5.47
2019-05-06T03:38:18.622Z,5.87
2019-05-06T03:43:13.678Z,6.07
2019-05-06T03:48:19.127Z,6.47
2019-05-06T03:53:14.006Z,5.90
2019-05-06T03:58:09.141Z,6.03
2019-05-06T04:03:03.359Z,6.43
2019-05-06T04:07:57.399Z,5.93
2019-05-06T04:12:53.441Z,5.63
2019-05-06T04:17:56.439Z,5.77
2019-05-06T04:23:06.877Z,6.50
2019-05-06T04:28:23.577Z,5.47
2019-05-06T04:33:17.595Z,5.50
2019-05-06T04:38:13.851Z,6.17
2019-05-06T04:43:08.009Z,5.60
2019-05-06T04:48:03.480Z,5.80
2019-05-06T04:53:05.200Z,5.57
2019-05-06T04:57:59.501Z,5.30
2019-05-06T05:02:54.980Z,5.93
2019-05-06T05:07:49.337Z,6.50
2019-05-06T05:12:52.797Z,5.73
2019-05-06T05:18:06.095Z,5.77
2019-05-06T05:23:02.293Z,5.60
2019-05-06T05:27:56.259Z,5.50
2019-05-06T05:32:51.957Z,6.53
2019-05-06T05:37:45.521Z,6.57
2019-05-06T05:42:59.107Z,6.90
2019-05-06T05:47:55.300Z,6.83
2019-05-06T05:52:49.156Z,6.70
2019-05-06T05:57:43.365Z,7.30
2019-05-06T06:02:37.337Z,7.00
2019-05-06T06:07:32.801Z,7.47
2019-05-06T06:12:27.198Z,7.00
2019-05-06T06:17:44.385Z,8.17
2019-05-06T06:22:38.182Z,8.23
2019-05-06T06:27:47.924Z,8.50
2019-05-06T06:32:42.452Z,8.97
2019-05-06T06:38:07.963Z,9.30
2019-05-06T06:43:06.152Z,8.17
2019-05-06T06:48:02.942Z,7.90
2019-05-06T06:52:56.590Z,7.90
2019-05-06T06:58:03.082Z,7.50
2019-05-06T07:03:23.187Z,8.13
2019-05-06T07:08:31.365Z,7.63
2019-05-06T07:13:16.710Z,7.90
2019-05-06T07:18:13.282Z,8.30
2019-05-06T07:23:24.958Z,7.13
2019-05-06T07:28:18.894Z,7.63
2019-05-06T07:33:13.420Z,8.83
2019-05-06T07:38:07.364Z,8.63
2019-05-06T07:43:22.038Z,7.27
2019-05-06T07:48:16.459Z,7.10
2019-05-06T07:53:10.514Z,7.67
2019-05-06T07:58:04.833Z,7.57
2019-05-06T08:02:58.896Z,7.27
2019-05-06T08:07:55.207Z,7.00
2019-05-06T08:12:48.935Z,6.83
2019-05-06T08:17:42.952Z,7.60
2019-05-06T08:22:52.978Z,7.40
2019-05-06T08:27:49.477Z,6.60
2019-05-06T08:32:43.242Z,6.20
2019-05-06T08:37:37.961Z,6.17
2019-05-06T08:42:32.905Z,5.23
2019-05-06T08:47:28.004Z,5.60
2019-05-06T08:52:24.842Z,5.03
2019-05-06T08:57:18.943Z,5.10
2019-05-06T09:02:13.787Z,4.53
2019-05-06T09:07:07.962Z,3.73
2019-05-06T09:12:02.645Z,3.93
2019-05-06T09:16:56.660Z,4.10
2019-05-06T09:21:53.054Z,4.40
2019-05-06T09:26:57.412Z,4.10
2019-05-06T09:31:54.287Z,4.40
2019-05-06T09:37:04.966Z,5.30
2019-05-06T09:41:59.036Z,5.60
2019-05-06T09:46:53.117Z,5.73
2019-05-06T09:51:47.256Z,5.40
2019-05-06T09:56:46.876Z,5.57
2019-05-06T10:01:43.539Z,5.27
2019-05-06T10:06:39.601Z,5.43
2019-05-06T10:11:33.806Z,6.33
2019-05-06T10:16:27.772Z,6.47
2019-05-06T10:21:22.997Z,6.23
2019-05-06T10:26:16.987Z,6.87
2019-05-06T10:31:12.899Z,6.67
2019-05-06T10:36:06.809Z,6.73
2019-05-06T10:41:07.692Z,6.97
2019-05-06T10:46:03.938Z,8.23
2019-05-06T10:51:03.521Z,7.90
2019-05-06T10:56:02.346Z,6.17
2019-05-06T11:01:12.999Z,6.03
2019-05-06T11:06:07.079Z,6.00
2019-05-06T11:11:14.956Z,6.07
2019-05-06T11:16:03.173Z,5.37
2019-05-06T11:20:57.164Z,5.63
2019-05-06T11:25:52.582Z,6.43
2019-05-06T11:31:04.800Z,6.90
2019-05-06T11:36:07.608Z,7.27
2019-05-06T11:41:02.523Z,5.33
2019-05-06T11:45:56.873Z,5.20
2019-05-06T11:50:52.998Z,5.80
2019-05-06T11:55:47.069Z,5.70
2019-05-06T12:00:44.272Z,5.83
2019-05-06T12:05:38.208Z,5.23
2019-05-06T12:10:33.089Z,5.50
2019-05-06T12:15:27.223Z,5.20
2019-05-06T12:20:22.193Z,4.87
2019-05-06T12:25:16.783Z,4.73
2019-05-06T12:30:12.318Z,4.93
2019-05-06T12:35:06.213Z,5.00
2019-05-06T12:40:00.078Z,4.90
2019-05-06T12:45:07.135Z,4.63
2019-05-06T12:50:02.702Z,4.57
2019-05-06T12:55:16.381Z,4.53
2019-05-06T12:59:53.108Z,4.40
2019-05-06T13:04:56.061Z,4.77
2019-05-06T13:09:45.357Z,4.60
2019-05-06T13:14:39.018Z,5.40
2019-05-06T13:19:34.412Z,5.00
2019-05-06T13:24:32.392Z,5.27
2019-05-06T13:29:28.828Z,5.67
2019-05-06T13:34:23.383Z,6.00
2019-05-06T13:39:17.610Z,5.77
2019-05-06T13:44:13.462Z,6.03
2019-05-06T13:49:35.626Z,6.37
2019-05-06T13:54:29.606Z,6.10
2019-05-06T13:59:23.646Z,6.30
2019-05-06T14:04:17.617Z,5.97
2019-05-06T14:09:27.966Z,6.20
2019-05-06T14:14:07.670Z,6.60
2019-05-06T14:19:04.012Z,6.40
2019-05-06T14:23:57.372Z,6.77
2019-05-06T14:28:57.587Z,6.53
2019-05-06T14:33:52.213Z,6.37
2019-05-06T14:38:46.252Z,6.50
2019-05-06T14:43:42.234Z,5.70
2019-05-06T14:48:36.030Z,5.63
2019-05-06T14:53:32.761Z,6.40
2019-05-06T14:58:25.843Z,6.53
2019-05-06T15:03:21.597Z,6.23
2019-05-06T15:08:15.691Z,6.50
2019-05-06T15:13:12.647Z,5.53
2019-05-06T15:18:06.740Z,7.33
2019-05-06T15:23:04.292Z,6.93
2019-05-06T15:27:56.565Z,6.27
2019-05-06T15:32:52.776Z,6.03
2019-05-06T15:37:58.365Z,6.17
2019-05-06T15:42:53.494Z,5.63
2019-05-06T15:47:47.395Z,6.27
2019-05-06T15:52:43.497Z,5.40
2019-05-06T15:57:37.661Z,7.50
2019-05-06T16:02:33.480Z,7.77
2019-05-06T16:07:27.709Z,8.47
2019-05-06T16:12:22.125Z,9.47
2019-05-06T16:17:16.157Z,9.30
2019-05-06T16:22:10.137Z,9.07
2019-05-06T16:27:04.015Z,8.50
2019-05-06T16:31:58.022Z,8.63
2019-05-06T16:36:52.096Z,8.70
2019-05-06T16:41:46.091Z,8.83
2019-05-06T16:46:42.508Z,8.17
2019-05-06T16:51:35.947Z,8.73
2019-05-06T16:56:41.805Z,7.63
2019-05-06T17:01:38.753Z,8.83
2019-05-06T17:06:35.455Z,9.20
2019-05-06T17:11:31.870Z,8.43
2019-05-06T17:16:26.548Z,9.47
2019-05-06T17:21:22.273Z,10.23
2019-05-06T17:26:16.521Z,10.40
2019-05-06T17:31:33.368Z,9.27
2019-05-06T17:36:29.530Z,8.70
2019-05-06T17:41:26.533Z,9.33
2019-05-06T17:46:22.261Z,8.50
2019-05-06T17:51:18.085Z,8.67
2019-05-06T17:56:12.768Z,8.33
2019-05-06T18:01:08.331Z,8.57
2019-05-06T18:06:06.882Z,8.70
2019-05-06T18:10:58.274Z,7.87
2019-05-06T18:15:53.039Z,8.83
2019-05-06T18:20:47.110Z,8.70
2019-05-06T18:25:42.555Z,8.57
2019-05-06T18:30:37.275Z,9.03
2019-05-06T18:35:31.366Z,9.07
2019-05-06T18:40:25.412Z,9.43
2019-05-06T18:45:19.383Z,10.23
2019-05-06T18:50:13.495Z,7.87
2019-05-06T18:55:07.703Z,8.10
2019-05-06T19:00:03.109Z,8.20
2019-05-06T19:05:13.164Z,8.43
2019-05-06T19:10:26.804Z,8.67
2019-05-06T19:15:22.445Z,8.73
2019-05-06T19:20:16.843Z,8.43
2019-05-06T19:25:14.472Z,8.07
2019-05-06T19:30:08.134Z,8.47
2019-05-06T19:35:02.893Z,8.80
2019-05-06T19:39:57.203Z,8.07
2019-05-06T19:44:52.864Z,8.20
2019-05-06T19:49:46.883Z,7.73
2019-05-06T19:54:42.495Z,8.17
2019-05-06T19:59:36.587Z,8.67
2019-05-06T20:04:33.245Z,7.87
2019-05-06T20:09:42.541Z,7.70
2019-05-06T20:14:36.554Z,8.37
2019-05-06T20:19:33.795Z,8.40
2019-05-06T20:24:26.997Z,8.47
2019-05-06T20:29:22.789Z,8.53
2019-05-06T20:34:16.700Z,7.63
2019-05-06T20:39:12.230Z,8.23
2019-05-06T20:44:07.048Z,7.87
2019-05-06T20:49:02.689Z,8.77
2019-05-06T20:53:57.000Z,8.90
2019-05-06T20:58:52.843Z,8.47
2019-05-06T21:03:46.744Z,8.70
2019-05-06T21:08:42.166Z,7.93
2019-05-06T21:13:36.279Z,8.63
2019-05-06T21:18:32.321Z,8.90
2019-05-06T21:23:25.987Z,7.90
2019-05-06T21:28:19.941Z,8.23
2019-05-06T21:33:13.887Z,8.40
2019-05-06T21:38:07.970Z,8.53
2019-05-06T21:43:02.325Z,8.43
2019-05-06T21:47:56.362Z,8.30
2019-05-06T21:52:53.185Z,8.27
2019-05-06T21:57:47.277Z,8.53
2019-05-06T22:02:42.224Z,8.60
2019-05-06T22:07:36.307Z,8.60
2019-05-06T22:12:32.201Z,8.53
2019-05-06T22:17:26.144Z,8.97
2019-05-06T22:22:23.399Z,8.97
2019-05-06T22:27:18.007Z,9.27
2019-05-06T22:32:14.840Z,9.13
2019-05-06T22:37:07.731Z,9.30
2019-05-06T22:42:01.832Z,9.13
2019-05-06T22:46:56.014Z,10.00
2019-05-06T22:51:52.048Z,9.47
2019-05-06T22:56:45.740Z,9.30
2019-05-06T23:01:59.271Z,9.77
2019-05-06T23:06:53.236Z,9.60
2019-05-06T23:11:47.411Z,10.53
2019-05-06T23:16:42.450Z,10.50
2019-05-06T23:21:36.595Z,9.67
2019-05-06T23:26:30.584Z,10.40
2019-05-06T23:31:24.735Z,10.73
2019-05-06T23:36:18.844Z,11.43
2019-05-06T23:42:07.426Z,10.83
2019-05-06T23:47:56.005Z,10.60
2019-05-06T23:53:44.685Z,10.93
2019-05-06T23:58:38.453Z,11.47
